Time;durP1;ratioP1;P1;durP2;ratioP2;P2;SDS_P1;SDS_P2;PMS_P1;PMS_P2;Temp;Humidity;BMP_temperature;BMP_pressure;BME280_temperature;BME280_humidity;BME280_pressure;Samples;Min_cycle;Max_cycle;Signal;HPM_P1;HPM_P2
2023/06/13 00:04:03;;;;;;;12.85;8.35;;;;;;;;;;10402687;28;20021;-75
2023/06/13 00:09:03;;;;;;;13.98;8.98;;;;;;;;;;10403071;28;20044;-79
2023/06/13 00:14:04;;;;;;;14.10;9.85;;;;;;;;;;10403763;28;20025;-79
2023/06/13 00:19:04;;;;;;;18.37;10.33;;;;;;;;;;10397787;28;20101;-73
2023/06/13 00:24:05;;;;;;;19.48;11.70;;;;;;;;;;10374512;28;20025;-83
2023/06/13 00:29:06;;;;;;;15.13;10.02;;;;;;;;;;10401391;28;20568;-82
2023/06/13 00:34:07;;;;;;;11.03;7.57;;;;;;;;;;10362063;28;20033;-78
2023/06/13 00:39:07;;;;;;;10.40;7.65;;;;;;;;;;10394342;28;20022;-75
2023/06/13 00:44:07;;;;;;;8.38;6.65;;;;;;;;;;10401333;28;20029;-75
2023/06/13 00:49:08;;;;;;;10.50;6.57;;;;;;;;;;10401243;28;20045;-75
2023/06/13 00:54:10;;;;;;;8.15;6.32;;;;;;;;;;10401107;28;20022;-81
2023/06/13 00:59:12;;;;;;;11.50;5.93;;;;;;;;;;10402412;28;20017;-74
2023/06/13 01:04:13;;;;;;;11.93;6.47;;;;;;;;;;10400222;28;20457;-75
2023/06/13 01:09:14;;;;;;;8.85;6.05;;;;;;;;;;10401128;28;20065;-77
2023/06/13 01:14:15;;;;;;;6.88;5.47;;;;;;;;;;10410147;28;20094;-80
2023/06/13 01:19:30;;;;;;;8.75;5.90;;;;;;;;;;10403890;28;20022;-79
2023/06/13 01:24:42;;;;;;;8.07;6.32;;;;;;;;;;10401239;28;20121;-76
2023/06/13 01:29:43;;;;;;;9.75;6.53;;;;;;;;;;10399715;28;20457;-75
2023/06/13 01:34:45;;;;;;;14.98;7.90;;;;;;;;;;10398645;28;20029;-80
2023/06/13 01:39:45;;;;;;;18.63;8.52;;;;;;;;;;10399207;28;20429;-76
2023/06/13 01:44:45;;;;;;;9.93;7.30;;;;;;;;;;10382061;28;20053;-80
2023/06/13 01:50:02;;;;;;;12.83;8.90;;;;;;;;;;10398669;28;20060;-81
2023/06/13 01:55:05;;;;;;;15.98;8.98;;;;;;;;;;10395622;28;20036;-85
2023/06/13 02:00:09;;;;;;;13.38;8.65;;;;;;;;;;10401115;28;20414;-78
2023/06/13 02:05:11;;;;;;;11.52;8.93;;;;;;;;;;10399243;28;20022;-82
2023/06/13 02:10:12;;;;;;;13.60;9.27;;;;;;;;;;10399793;28;20025;-80
2023/06/13 02:15:12;;;;;;;11.73;8.90;;;;;;;;;;10397086;28;20038;-74
2023/06/13 02:20:12;;;;;;;13.68;8.90;;;;;;;;;;10400291;28;20021;-75
2023/06/13 02:25:14;;;;;;;16.67;10.03;;;;;;;;;;10397573;28;20026;-77
2023/06/13 02:30:14;;;;;;;16.38;10.35;;;;;;;;;;10378852;28;20033;-76
2023/06/13 02:35:14;;;;;;;15.00;8.57;;;;;;;;;;10357996;28;20026;-75
2023/06/13 02:40:15;;;;;;;14.27;8.43;;;;;;;;;;10394179;28;20028;-78
2023/06/13 02:45:18;;;;;;;13.07;8.77;;;;;;;;;;10378604;28;20370;-76
2023/06/13 02:50:18;;;;;;;17.55;9.30;;;;;;;;;;10378557;28;20049;-75
2023/06/13 02:55:20;;;;;;;15.98;8.95;;;;;;;;;;10385941;28;20030;-80
2023/06/13 03:00:21;;;;;;;14.95;8.77;;;;;;;;;;10398537;28;20045;-78
2023/06/13 03:05:22;;;;;;;13.52;9.30;;;;;;;;;;10398943;28;20014;-74
2023/06/13 03:10:23;;;;;;;18.08;8.25;;;;;;;;;;10373232;28;20018;-76
2023/06/13 03:15:23;;;;;;;13.57;9.07;;;;;;;;;;10373006;28;20022;-77
2023/06/13 03:20:24;;;;;;;15.35;9.00;;;;;;;;;;10404944;28;20072;-76
2023/06/13 03:25:24;;;;;;;19.00;10.47;;;;;;;;;;10405234;28;20467;-75
2023/06/13 03:30:24;;;;;;;19.65;10.10;;;;;;;;;;10404164;28;20272;-77
2023/06/13 03:35:25;;;;;;;10.32;7.95;;;;;;;;;;10368396;28;20034;-75
2023/06/13 03:40:25;;;;;;;14.73;9.63;;;;;;;;;;10366785;28;20068;-77
2023/06/13 03:45:25;;;;;;;12.10;7.97;;;;;;;;;;10366339;28;20033;-78
2023/06/13 03:50:25;;;;;;;13.70;9.43;;;;;;;;;;10386482;28;20056;-78
2023/06/13 03:55:26;;;;;;;18.00;10.55;;;;;;;;;;10402211;28;20044;-77
2023/06/13 04:00:26;;;;;;;16.65;9.48;;;;;;;;;;10396820;28;20026;-77
2023/06/13 04:05:26;;;;;;;15.13;9.27;;;;;;;;;;10398662;28;20028;-74
2023/06/13 04:10:27;;;;;;;18.80;8.37;;;;;;;;;;10404178;28;20526;-81
2023/06/13 04:15:27;;;;;;;16.63;9.82;;;;;;;;;;10383941;28;20277;-77
2023/06/13 04:20:27;;;;;;;18.85;10.20;;;;;;;;;;10371005;28;20100;-77
2023/06/13 04:25:27;;;;;;;16.47;9.63;;;;;;;;;;10383512;28;20024;-79
2023/06/13 04:30:38;;;;;;;21.13;9.85;;;;;;;;;;10383339;28;20021;-78
2023/06/13 04:35:44;;;;;;;18.85;10.63;;;;;;;;;;10398314;28;20038;-82
2023/06/13 04:40:50;;;;;;;17.50;10.05;;;;;;;;;;10375749;28;20041;-77
2023/06/13 04:45:51;;;;;;;19.58;9.95;;;;;;;;;;10347860;28;20030;-77
2023/06/13 04:50:53;;;;;;;21.30;10.50;;;;;;;;;;10356181;28;20058;-79
2023/06/13 04:55:53;;;;;;;21.30;11.43;;;;;;;;;;10372705;28;20485;-80
2023/06/13 05:00:55;;;;;;;18.17;10.93;;;;;;;;;;10397535;28;20267;-79
2023/06/13 05:06:00;;;;;;;19.10;11.50;;;;;;;;;;10402647;28;20653;-83
2023/06/13 05:11:00;;;;;;;19.25;11.88;;;;;;;;;;10399250;28;20465;-77
2023/06/13 05:16:01;;;;;;;19.02;11.35;;;;;;;;;;10398673;28;20028;-78
2023/06/13 05:21:01;;;;;;;20.30;9.33;;;;;;;;;;10402421;28;20022;-76
2023/06/13 05:26:01;;;;;;;18.25;9.80;;;;;;;;;;10402583;28;20030;-81
2023/06/13 05:31:05;;;;;;;17.38;8.73;;;;;;;;;;10404061;28;20029;-75
2023/06/13 05:36:05;;;;;;;16.85;9.95;;;;;;;;;;10401093;28;20048;-79
2023/06/13 05:41:05;;;;;;;21.90;10.43;;;;;;;;;;10400188;28;20079;-78
2023/06/13 05:46:06;;;;;;;23.73;10.52;;;;;;;;;;10400953;28;20493;-79
2023/06/13 05:51:06;;;;;;;15.32;8.23;;;;;;;;;;10395642;28;20056;-79
2023/06/13 05:56:06;;;;;;;20.73;8.85;;;;;;;;;;10365374;28;20037;-77
2023/06/13 06:01:10;;;;;;;20.77;8.80;;;;;;;;;;10403261;28;20094;-80
2023/06/13 06:06:10;;;;;;;12.77;7.22;;;;;;;;;;10411593;28;20413;-80
2023/06/13 06:11:10;;;;;;;7.23;5.00;;;;;;;;;;10401172;28;20029;-77
2023/06/13 06:16:20;;;;;;;10.90;5.78;;;;;;;;;;10397851;28;20533;-78
2023/06/13 06:21:20;;;;;;;7.85;5.53;;;;;;;;;;10398334;28;20032;-82
2023/06/13 06:26:26;;;;;;;9.97;5.50;;;;;;;;;;10403768;28;20083;-79
2023/06/13 06:31:42;;;;;;;10.75;5.70;;;;;;;;;;10396964;28;20126;-78
2023/06/13 06:36:42;;;;;;;6.28;4.63;;;;;;;;;;10398240;28;20087;-78
2023/06/13 06:41:43;;;;;;;9.60;5.90;;;;;;;;;;10398596;28;20028;-77
2023/06/13 06:46:46;;;;;;;6.93;4.47;;;;;;;;;;10397380;28;20602;-77
2023/06/13 06:51:47;;;;;;;7.70;3.53;;;;;;;;;;10397909;28;20053;-76
2023/06/13 06:56:48;;;;;;;4.47;2.83;;;;;;;;;;10399165;28;20025;-78
2023/06/13 07:01:50;;;;;;;4.18;3.03;;;;;;;;;;10398724;28;20032;-78
2023/06/13 07:06:50;;;;;;;12.23;4.22;;;;;;;;;;10398389;28;20029;-77
2023/06/13 07:11:53;;;;;;;10.63;3.10;;;;;;;;;;10397518;28;20059;-77
2023/06/13 07:16:54;;;;;;;11.80;3.15;;;;;;;;;;10397910;28;20030;-77
2023/06/13 07:21:54;;;;;;;4.38;2.97;;;;;;;;;;10399888;28;20440;-83
2023/06/13 07:26:57;;;;;;;3.65;2.65;;;;;;;;;;10405210;28;20079;-81
2023/06/13 07:31:57;;;;;;;5.35;3.42;;;;;;;;;;10397253;28;20060;-77
2023/06/13 07:36:57;;;;;;;4.22;2.97;;;;;;;;;;10403158;28;20117;-77
2023/06/13 07:41:58;;;;;;;8.60;3.57;;;;;;;;;;10395816;28;20025;-77
2023/06/13 07:46:58;;;;;;;18.80;8.77;;;;;;;;;;10395949;28;20378;-76
2023/06/13 07:51:58;;;;;;;4.95;3.90;;;;;;;;;;10393560;28;20527;-76
2023/06/13 07:57:06;;;;;;;6.22;3.53;;;;;;;;;;10404795;28;20413;-79
2023/06/13 08:02:06;;;;;;;4.55;3.22;;;;;;;;;;10403520;28;20029;-81
2023/06/13 08:07:07;;;;;;;7.35;2.92;;;;;;;;;;10404801;28;20453;-76
2023/06/13 08:12:07;;;;;;;4.80;2.70;;;;;;;;;;10402241;28;20576;-76
2023/06/13 08:17:28;;;;;;;8.82;4.10;;;;;;;;;;10413915;28;20033;-82
2023/06/13 08:22:29;;;;;;;4.35;3.03;;;;;;;;;;10389117;28;20025;-77
2023/06/13 08:27:29;;;;;;;8.02;4.05;;;;;;;;;;10402649;28;20029;-76
2023/06/13 08:32:31;;;;;;;11.50;7.30;;;;;;;;;;10402925;28;20025;-76
2023/06/13 08:37:31;;;;;;;13.32;6.80;;;;;;;;;;10402852;28;20480;-79
2023/06/13 08:42:32;;;;;;;14.95;7.55;;;;;;;;;;10401873;28;20121;-76
2023/06/13 08:47:33;;;;;;;21.63;8.73;;;;;;;;;;10401554;28;20040;-79
2023/06/13 08:52:45;;;;;;;11.60;6.13;;;;;;;;;;10373614;28;20045;-76
2023/06/13 08:57:47;;;;;;;10.20;6.82;;;;;;;;;;10402319;28;20036;-76
2023/06/13 09:02:48;;;;;;;6.35;4.90;;;;;;;;;;10402706;28;20039;-80
2023/06/13 09:07:49;;;;;;;8.32;5.00;;;;;;;;;;10402477;28;20033;-78
2023/06/13 09:12:51;;;;;;;6.40;4.13;;;;;;;;;;10393810;28;20080;-77
2023/06/13 09:17:53;;;;;;;5.57;3.72;;;;;;;;;;10366212;28;20033;-77
2023/06/13 09:22:55;;;;;;;15.20;5.30;;;;;;;;;;10407969;28;20437;-76
2023/06/13 09:28:34;;;;;;;7.55;4.65;;;;;;;;;;10404891;28;20831;-76
2023/06/13 09:33:35;;;;;;;4.32;3.50;;;;;;;;;;10395393;28;20045;-77
2023/06/13 09:38:40;;;;;;;8.38;4.88;;;;;;;;;;10401409;28;20013;-80
2023/06/13 09:43:41;;;;;;;10.95;6.82;;;;;;;;;;10405177;28;20026;-78
2023/06/13 09:48:43;;;;;;;9.40;5.07;;;;;;;;;;10400670;28;20380;-80
2023/06/13 09:53:45;;;;;;;10.43;5.00;;;;;;;;;;10399164;28;20074;-76
2023/06/13 09:58:45;;;;;;;11.15;5.55;;;;;;;;;;10401441;28;20029;-77
2023/06/13 10:03:46;;;;;;;12.43;7.88;;;;;;;;;;10359559;28;20552;-77
2023/06/13 10:08:46;;;;;;;10.68;5.53;;;;;;;;;;10359939;28;20183;-76
2023/06/13 10:13:51;;;;;;;9.53;5.73;;;;;;;;;;10359738;28;20040;-77
2023/06/13 10:18:52;;;;;;;8.43;4.88;;;;;;;;;;10377421;28;20307;-77
2023/06/13 10:23:54;;;;;;;13.07;8.23;;;;;;;;;;10399090;28;20026;-77
2023/06/13 10:29:01;;;;;;;12.45;7.07;;;;;;;;;;10397144;28;20029;-77
2023/06/13 10:34:30;;;;;;;10.75;6.93;;;;;;;;;;10397197;28;20055;-81
2023/06/13 10:39:49;;;;;;;15.77;8.02;;;;;;;;;;10366664;28;20537;-79
2023/06/13 10:44:49;;;;;;;11.80;7.38;;;;;;;;;;10357515;28;20025;-81
2023/06/13 10:49:51;;;;;;;11.95;7.25;;;;;;;;;;10357822;28;20601;-80
2023/06/13 10:54:53;;;;;;;16.90;9.77;;;;;;;;;;10390309;28;20287;-77
2023/06/13 10:59:54;;;;;;;15.50;9.10;;;;;;;;;;10399233;28;20021;-78
2023/06/13 11:04:56;;;;;;;13.27;8.05;;;;;;;;;;10397105;28;20614;-77
2023/06/13 11:10:12;;;;;;;9.75;6.13;;;;;;;;;;10400152;28;20116;-78
2023/06/13 11:15:23;;;;;;;9.88;5.07;;;;;;;;;;10399248;28;20040;-75
2023/06/13 11:20:24;;;;;;;7.93;4.60;;;;;;;;;;10398853;28;20029;-82
2023/06/13 11:25:24;;;;;;;8.67;3.93;;;;;;;;;;10397643;28;20025;-79
2023/06/13 11:30:25;;;;;;;6.77;3.63;;;;;;;;;;10384770;28;20025;-77
2023/06/13 11:35:26;;;;;;;5.72;4.13;;;;;;;;;;10406710;28;20288;-76
2023/06/13 11:40:30;;;;;;;6.18;4.05;;;;;;;;;;10405022;28;20021;-80
2023/06/13 11:45:31;;;;;;;6.88;3.70;;;;;;;;;;10404898;28;20103;-76
2023/06/13 11:50:32;;;;;;;3.03;2.37;;;;;;;;;;10400839;28;20141;-78
2023/06/13 11:55:33;;;;;;;4.32;3.10;;;;;;;;;;10363348;28;20441;-75
2023/06/13 12:00:56;;;;;;;4.88;3.13;;;;;;;;;;10368569;28;20112;-78
2023/06/13 12:05:57;;;;;;;4.30;3.33;;;;;;;;;;10402941;28;20074;-77
2023/06/13 12:10:57;;;;;;;4.05;3.20;;;;;;;;;;10404650;28;20022;-79
2023/06/13 12:15:58;;;;;;;11.55;3.97;;;;;;;;;;10403214;28;20033;-77
2023/06/13 12:20:59;;;;;;;10.73;4.43;;;;;;;;;;10411462;28;20390;-80
2023/06/13 12:26:01;;;;;;;13.48;7.03;;;;;;;;;;10409763;28;20021;-83
2023/06/13 12:31:05;;;;;;;11.68;9.07;;;;;;;;;;10405285;28;20560;-77
2023/06/13 12:36:06;;;;;;;19.65;10.70;;;;;;;;;;10402442;28;20049;-77
2023/06/13 12:41:14;;;;;;;18.37;11.80;;;;;;;;;;10413038;28;20520;-84
2023/06/13 12:46:14;;;;;;;20.52;11.45;;;;;;;;;;10409510;28;20018;-79
2023/06/13 12:51:28;;;;;;;25.35;12.00;;;;;;;;;;10367256;28;20057;-78
2023/06/13 12:56:29;;;;;;;21.65;12.68;;;;;;;;;;10407250;28;20131;-81
2023/06/13 13:01:40;;;;;;;13.43;8.73;;;;;;;;;;10407654;28;20429;-81
2023/06/13 13:06:42;;;;;;;11.65;5.82;;;;;;;;;;10404834;28;20079;-85
2023/06/13 13:11:43;;;;;;;11.57;6.32;;;;;;;;;;10367184;28;20557;-85
2023/06/13 13:16:43;;;;;;;14.63;6.75;;;;;;;;;;10388705;28;20033;-79
2023/06/13 13:21:43;;;;;;;8.93;6.25;;;;;;;;;;10402179;28;20041;-82
2023/06/13 13:26:45;;;;;;;12.02;6.10;;;;;;;;;;10401323;28;20057;-77
2023/06/13 13:31:45;;;;;;;9.63;5.45;;;;;;;;;;10388617;28;20038;-77
2023/06/13 13:36:46;;;;;;;10.80;6.78;;;;;;;;;;10387786;28;20497;-82
2023/06/13 13:41:46;;;;;;;11.65;7.38;;;;;;;;;;10400439;28;20473;-78
2023/06/13 13:46:47;;;;;;;21.50;8.02;;;;;;;;;;10401696;28;20029;-81
2023/06/13 13:51:52;;;;;;;17.73;9.63;;;;;;;;;;10399744;28;20532;-78
2023/06/13 13:56:52;;;;;;;17.63;8.52;;;;;;;;;;10399079;28;20025;-80
2023/06/13 14:01:52;;;;;;;23.92;10.20;;;;;;;;;;10361895;28;20096;-78
2023/06/13 14:06:52;;;;;;;17.87;10.73;;;;;;;;;;10386976;28;20525;-84
2023/06/13 14:11:54;;;;;;;21.75;9.70;;;;;;;;;;10399342;28;20580;-83
2023/06/13 14:16:56;;;;;;;15.30;9.43;;;;;;;;;;10400258;28;20120;-81
2023/06/13 14:21:56;;;;;;;22.45;10.75;;;;;;;;;;10403265;28;20025;-79
2023/06/13 14:26:58;;;;;;;21.27;12.25;;;;;;;;;;10380795;28;20487;-82
2023/06/13 14:31:58;;;;;;;20.23;11.57;;;;;;;;;;10365529;28;20033;-78
2023/06/13 14:36:58;;;;;;;26.45;11.77;;;;;;;;;;10398799;28;20504;-78
2023/06/13 14:41:59;;;;;;;21.05;11.57;;;;;;;;;;10388656;28;20798;-78
2023/06/13 14:47:00;;;;;;;18.77;11.77;;;;;;;;;;10399023;28;20409;-80
2023/06/13 14:52:04;;;;;;;18.77;12.40;;;;;;;;;;10400769;28;20314;-85
2023/06/13 14:57:05;;;;;;;23.10;13.68;;;;;;;;;;10399117;28;20033;-79
2023/06/13 15:02:05;;;;;;;21.45;13.05;;;;;;;;;;10399285;28;20459;-82
2023/06/13 15:07:06;;;;;;;19.73;13.25;;;;;;;;;;10410309;28;20078;-83
2023/06/13 15:12:07;;;;;;;24.97;15.20;;;;;;;;;;10408785;28;20462;-80
2023/06/13 15:17:07;;;;;;;21.40;13.43;;;;;;;;;;10407778;28;20083;-83
2023/06/13 15:22:08;;;;;;;21.50;13.40;;;;;;;;;;10394664;28;20029;-80
2023/06/13 15:27:11;;;;;;;25.55;14.60;;;;;;;;;;10422043;28;20033;-82
2023/06/13 15:32:11;;;;;;;25.80;13.30;;;;;;;;;;10423458;28;20401;-81
2023/06/13 15:37:11;;;;;;;19.80;11.97;;;;;;;;;;10419054;28;20052;-81
2023/06/13 15:42:12;;;;;;;20.77;13.20;;;;;;;;;;10383533;28;20490;-80
2023/06/13 15:47:12;;;;;;;19.67;12.33;;;;;;;;;;10372513;28;20033;-81
2023/06/13 15:52:12;;;;;;;18.73;12.83;;;;;;;;;;10405896;28;20052;-78
2023/06/13 15:57:12;;;;;;;23.98;14.48;;;;;;;;;;10406090;28;20017;-82
2023/06/13 16:02:14;;;;;;;21.27;12.95;;;;;;;;;;10406421;28;20021;-76
2023/06/13 16:07:16;;;;;;;21.20;12.20;;;;;;;;;;10402903;28;20025;-79
2023/06/13 16:12:16;;;;;;;21.95;13.13;;;;;;;;;;10405131;28;20559;-86
2023/06/13 16:17:16;;;;;;;18.75;12.38;;;;;;;;;;10373197;28;20233;-81
2023/06/13 16:22:17;;;;;;;22.55;11.73;;;;;;;;;;10370281;28;20013;-83
2023/06/13 16:27:17;;;;;;;17.77;11.90;;;;;;;;;;10404574;28;20021;-78
2023/06/13 16:32:19;;;;;;;19.85;10.55;;;;;;;;;;10404138;28;20030;-80
2023/06/13 16:37:22;;;;;;;13.05;9.57;;;;;;;;;;10401869;28;20033;-83
2023/06/13 16:42:22;;;;;;;17.77;9.68;;;;;;;;;;10404413;28;20104;-80
2023/06/13 16:47:22;;;;;;;20.33;10.90;;;;;;;;;;10402397;28;20025;-77
2023/06/13 16:52:24;;;;;;;22.65;12.98;;;;;;;;;;10396919;28;20056;-78
2023/06/13 16:57:24;;;;;;;20.80;12.40;;;;;;;;;;10400064;28;20440;-83
2023/06/13 17:02:26;;;;;;;20.20;13.10;;;;;;;;;;10396064;28;20423;-82
2023/06/13 17:07:28;;;;;;;18.60;11.98;;;;;;;;;;10400779;28;20102;-82
2023/06/13 17:12:28;;;;;;;22.00;12.82;;;;;;;;;;10402480;28;20032;-82
2023/06/13 17:17:29;;;;;;;23.00;13.97;;;;;;;;;;10396116;28;20514;-82
2023/06/13 17:22:30;;;;;;;21.60;14.85;;;;;;;;;;10399096;28;20021;-73
2023/06/13 17:27:30;;;;;;;28.05;14.82;;;;;;;;;;10400473;28;20405;-75
2023/06/13 17:32:30;;;;;;;23.73;13.85;;;;;;;;;;10398403;28;20029;-76
2023/06/13 17:37:31;;;;;;;30.33;16.00;;;;;;;;;;10397573;28;20033;-75
2023/06/13 17:42:32;;;;;;;27.30;14.25;;;;;;;;;;10397921;28;20021;-82
2023/06/13 17:47:33;;;;;;;30.48;16.35;;;;;;;;;;10398183;28;20067;-85
2023/06/13 17:52:33;;;;;;;30.67;17.92;;;;;;;;;;10397700;28;20484;-81
2023/06/13 17:57:38;;;;;;;37.55;19.17;;;;;;;;;;10399880;28;20437;-82
2023/06/13 18:02:38;;;;;;;34.40;18.23;;;;;;;;;;10397412;28;20025;-77
2023/06/13 18:07:38;;;;;;;37.03;21.07;;;;;;;;;;10396160;28;20369;-76
2023/06/13 18:12:39;;;;;;;39.00;20.73;;;;;;;;;;10396813;28;20071;-79
2023/06/13 18:17:39;;;;;;;41.00;22.80;;;;;;;;;;10395358;28;20037;-75
2023/06/13 18:22:40;;;;;;;42.47;24.70;;;;;;;;;;10385780;28;20018;-77
2023/06/13 18:27:40;;;;;;;47.22;24.63;;;;;;;;;;10391137;28;20033;-82
2023/06/13 18:32:41;;;;;;;49.50;26.20;;;;;;;;;;10387531;28;20553;-74
2023/06/13 18:37:41;;;;;;;48.72;25.60;;;;;;;;;;10398457;28;20032;-79
2023/06/13 19:01:24;;;;;;;50.50;27.13;;;;;;;;;;10474358;27;20486;-75
2023/06/13 19:06:24;;;;;;;46.05;24.40;;;;;;;;;;10473515;28;20554;-84
2023/06/13 19:11:25;;;;;;;46.47;25.77;;;;;;;;;;10474051;28;20075;-74
2023/06/13 19:16:26;;;;;;;48.70;24.98;;;;;;;;;;10474843;28;20522;-80
2023/06/13 19:21:28;;;;;;;46.63;25.95;;;;;;;;;;10435894;28;20017;-75
2023/06/13 19:26:30;;;;;;;55.65;28.55;;;;;;;;;;10428960;28;20500;-77
2023/06/13 19:31:30;;;;;;;59.17;28.13;;;;;;;;;;10429970;28;20025;-74
2023/06/13 19:36:32;;;;;;;61.47;29.67;;;;;;;;;;10463011;28;20029;-81
2023/06/13 19:41:33;;;;;;;56.45;29.17;;;;;;;;;;10429302;28;20431;-83
2023/06/13 19:46:33;;;;;;;58.60;28.30;;;;;;;;;;10429939;28;20071;-77
2023/06/13 19:51:34;;;;;;;68.07;30.20;;;;;;;;;;10428130;28;20021;-74
2023/06/13 19:56:35;;;;;;;66.43;31.10;;;;;;;;;;10428210;28;20068;-74
2023/06/13 20:01:38;;;;;;;69.28;34.20;;;;;;;;;;10412779;28;20029;-73
2023/06/13 20:06:39;;;;;;;66.88;30.80;;;;;;;;;;10407239;28;20507;-77
2023/06/13 20:11:39;;;;;;;71.43;33.40;;;;;;;;;;10403716;28;20029;-77
2023/06/13 20:16:40;;;;;;;65.65;31.80;;;;;;;;;;10398208;28;20025;-77
2023/06/13 20:21:40;;;;;;;64.55;30.33;;;;;;;;;;10397532;28;20463;-79
2023/06/13 20:26:42;;;;;;;72.68;34.58;;;;;;;;;;10398876;28;20018;-74
2023/06/13 20:31:43;;;;;;;59.55;30.92;;;;;;;;;;10392349;28;20060;-75
2023/06/13 20:36:43;;;;;;;67.60;33.17;;;;;;;;;;10400162;28;20017;-80
2023/06/13 20:41:43;;;;;;;64.57;30.40;;;;;;;;;;10399539;28;20021;-77
2023/06/13 20:46:45;;;;;;;71.68;32.95;;;;;;;;;;10398443;28;20025;-76
2023/06/13 20:51:45;;;;;;;65.78;29.35;;;;;;;;;;10398288;28;20472;-79
2023/06/13 20:56:46;;;;;;;62.97;28.35;;;;;;;;;;10395365;28;20053;-74
2023/06/13 21:01:53;;;;;;;52.83;27.52;;;;;;;;;;10397870;28;20522;-79
2023/06/13 21:06:53;;;;;;;59.90;27.27;;;;;;;;;;10405885;28;20029;-75
2023/06/13 21:11:53;;;;;;;55.25;26.05;;;;;;;;;;10396237;28;20017;-75
2023/06/13 21:16:54;;;;;;;46.13;23.77;;;;;;;;;;10393670;28;20512;-74
2023/06/13 21:21:55;;;;;;;52.40;25.58;;;;;;;;;;10398201;28;20025;-84
2023/06/13 21:26:56;;;;;;;47.08;23.65;;;;;;;;;;10401509;28;20052;-83
2023/06/13 21:31:56;;;;;;;47.60;22.60;;;;;;;;;;10395526;28;20091;-75
2023/06/13 21:36:57;;;;;;;47.13;23.33;;;;;;;;;;10399365;28;20565;-73
2023/06/13 21:42:03;;;;;;;45.35;22.25;;;;;;;;;;10396846;28;20087;-80
2023/06/13 21:47:03;;;;;;;44.92;20.90;;;;;;;;;;10396749;28;20056;-78
2023/06/13 21:52:05;;;;;;;45.05;22.17;;;;;;;;;;10392768;28;20021;-78
2023/06/13 21:57:07;;;;;;;46.38;23.80;;;;;;;;;;10393437;28;20120;-79
2023/06/13 22:02:07;;;;;;;45.42;23.33;;;;;;;;;;10394902;28;20030;-78
2023/06/13 22:07:07;;;;;;;50.42;24.55;;;;;;;;;;10402802;28;20095;-84
2023/06/13 22:12:08;;;;;;;48.20;22.40;;;;;;;;;;10426830;28;20096;-81
2023/06/13 22:17:10;;;;;;;41.10;21.08;;;;;;;;;;10409291;28;20029;-79
2023/06/13 22:22:16;;;;;;;48.53;21.40;;;;;;;;;;10400743;28;20100;-76
2023/06/13 22:27:16;;;;;;;40.05;20.38;;;;;;;;;;10407070;28;20436;-78
2023/06/13 22:32:18;;;;;;;36.58;20.02;;;;;;;;;;10411984;28;20029;-78
2023/06/13 22:37:19;;;;;;;42.17;20.33;;;;;;;;;;10405087;28;20484;-78
2023/06/13 22:42:19;;;;;;;47.15;20.75;;;;;;;;;;10432004;28;20022;-79
2023/06/13 22:47:21;;;;;;;43.60;21.00;;;;;;;;;;10401347;28;20026;-78
2023/06/13 22:52:22;;;;;;;44.47;21.17;;;;;;;;;;10437357;28;20351;-80
2023/06/13 22:57:22;;;;;;;45.58;20.13;;;;;;;;;;10409533;28;20443;-79
2023/06/13 23:02:22;;;;;;;45.88;19.85;;;;;;;;;;10436802;28;20543;-78
2023/06/13 23:07:25;;;;;;;36.47;17.60;;;;;;;;;;10376043;28;20025;-73
2023/06/13 23:12:25;;;;;;;39.72;17.50;;;;;;;;;;10404339;28;20033;-76
2023/06/13 23:17:26;;;;;;;34.60;16.13;;;;;;;;;;10492781;22;20052;-81
2023/06/13 23:22:31;;;;;;;31.20;15.70;;;;;;;;;;10485406;28;20380;-81
2023/06/13 23:27:31;;;;;;;30.27;14.15;;;;;;;;;;10461172;28;20024;-78
2023/06/13 23:32:33;;;;;;;28.70;14.47;;;;;;;;;;10491841;28;20024;-81
2023/06/13 23:37:33;;;;;;;30.15;14.25;;;;;;;;;;10497943;28;20016;-78
2023/06/13 23:42:33;;;;;;;31.60;15.33;;;;;;;;;;10484968;28;20028;-76
2023/06/13 23:47:34;;;;;;;24.27;13.80;;;;;;;;;;10500615;28;20055;-77
2023/06/13 23:52:34;;;;;;;22.33;11.93;;;;;;;;;;10470131;28;20043;-76
2023/06/13 23:57:35;;;;;;;22.00;11.55;;;;;;;;;;10471997;28;20029;-80
